Vega Desgagnes — VOCQ — position and weather

sailwx.info

Track history (hours):
 
Tides and Currents Weather Stations Pressure Air Temp Water Temp Dewpoint Dewpoint Depression Visibility Wind Speed Wind Dir Waves Ship Positions

Vega Desgagnes

Last reported at 2014-Jul-29 18:33 UTC. Time now 2014-Jul-29 18:58 UTC.
Position N 45°08' W 074°25'.

Length 141 m; draft 6 m.

Type: Tanker. MMSI: 316003770.

Date/timePositionNaut miles runAvg speedWind from/ knotsBaromVisibWave heightAir tempDewpointWater temp
2014-Jul-29 18:33N 45°08' W 074°25'1212.3
2014-Jul-29 17:33N 45°14' W 074°10'9 9.3
2014-Jul-29 16:33N 45°16' W 073°57'3 3.4
2014-Jul-29 15:33N 45°19' W 073°55'3 3.0
2014-Jul-29 14:33N 45°21' W 073°52'10 9.7
2014-Jul-29 13:33N 45°24' W 073°39'4 3.7
2014-Jul-29 12:33N 45°24' W 073°34'4 4.2
2014-Jul-29 11:33N 45°28' W 073°30'2 2.0
2014-Jul-29 10:33N 45°30' W 073°31'3 2.8
2014-Jul-29 09:33N 45°32' W 073°32'2 2.4
2014-Jul-29 08:33N 45°35' W 073°30'2 2.3
2014-Jul-29 07:33N 45°37' W 073°30'0 0.0
2014-Jul-29 06:33N 45°37' W 073°30'0 0.0
2014-Jul-29 05:33N 45°37' W 073°30'0 0.0
2014-Jul-29 04:33N 45°37' W 073°30'0 0.0
2014-Jul-29 03:33N 45°37' W 073°30'0 0.0
2014-Jul-29 02:33N 45°37' W 073°30'0 0.0
2014-Jul-29 01:33N 45°37' W 073°30'0 0.0
2014-Jul-29 00:33N 45°37' W 073°30'2 2.1
2014-Jul-28 23:33N 45°39' W 073°29'1010.3
2014-Jul-28 22:33N 45°47' W 073°21'1010.4
2014-Jul-28 21:33N 45°56' W 073°13'1510.8
2014-Jul-28 20:10N 46°07' W 072°58'711.9
2014-Jul-28 19:33N 46°12' W 072°51'1312.6
2014-Jul-28 18:33N 46°18' W 072°35'1111.5
2014-Jul-28 17:33N 46°25' W 072°22'1211.6
2014-Jul-28 16:33N 46°33' W 072°09'12 0.4
2014-Jul-27 13:25N 46°39' W 071°54'1112.4
2014-Jul-27 12:33N 46°34' W 072°07'1413.9
2014-Jul-27 11:34N 46°25' W 072°23'1413.6
2014-Jul-27 10:33N 46°16' W 072°38'2813.3
2014-Jul-27 08:28N 46°00' W 073°11'1213.0
2014-Jul-27 07:33N 45°50' W 073°18'1413.9
2014-Jul-27 06:33N 45°38' W 073°29'8 8.5
2014-Jul-27 05:33N 45°30' W 073°31'2 1.7
2014-Jul-27 04:33N 45°28' W 073°30'4 4.5
2014-Jul-27 03:33N 45°24' W 073°34'3 3.5
2014-Jul-27 02:33N 45°24' W 073°39'1010.2
2014-Jul-27 01:33N 45°21' W 073°52'3 3.4
2014-Jul-27 00:33N 45°18' W 073°56'3 2.4
2014-Jul-26 23:24N 45°16' W 073°57'8 9.8
2014-Jul-26 22:34N 45°14' W 074°09'107 8.9
2014-Jul-26 10:32N 44°12' W 076°13'187 8.9
2014-Jul-25 13:23N 42°31' W 079°50'  
2014-Jul-21 05:10N 42°19' W 080°43'2514.4
2014-Jul-21 03:27N 42°28' W 080°12'1314.6
2014-Jul-21 02:33N 42°33' W 079°56'1514.6
2014-Jul-21 01:33N 42°41' W 079°39'  
Track history (hours):
 
Tides and Currents Weather Stations Pressure Air Temp Water Temp Dewpoint Dewpoint Depression Visibility Wind Speed Wind Dir Waves Ship Positions

Vega Desgagnes

Last reported at 2014-Jul-29 18:33 UTC. Time now 2014-Jul-29 18:58 UTC.
Position N 45°08' W 074°25'.

Length 141 m; draft 6 m.

Type: Tanker. MMSI: 316003770.

Date/timePositionNaut miles runAvg speedWind from/ knotsBaromVisibWave heightAir tempDewpointWater temp
2014-Jul-29 18:33N 45°08' W 074°25'1212.3
2014-Jul-29 17:33N 45°14' W 074°10'9 9.3
2014-Jul-29 16:33N 45°16' W 073°57'3 3.4
2014-Jul-29 15:33N 45°19' W 073°55'3 3.0
2014-Jul-29 14:33N 45°21' W 073°52'10 9.7
2014-Jul-29 13:33N 45°24' W 073°39'4 3.7
2014-Jul-29 12:33N 45°24' W 073°34'4 4.2
2014-Jul-29 11:33N 45°28' W 073°30'2 2.0
2014-Jul-29 10:33N 45°30' W 073°31'3 2.8
2014-Jul-29 09:33N 45°32' W 073°32'2 2.4
2014-Jul-29 08:33N 45°35' W 073°30'2 2.3
2014-Jul-29 07:33N 45°37' W 073°30'0 0.0
2014-Jul-29 06:33N 45°37' W 073°30'0 0.0
2014-Jul-29 05:33N 45°37' W 073°30'0 0.0
2014-Jul-29 04:33N 45°37' W 073°30'0 0.0
2014-Jul-29 03:33N 45°37' W 073°30'0 0.0
2014-Jul-29 02:33N 45°37' W 073°30'0 0.0
2014-Jul-29 01:33N 45°37' W 073°30'0 0.0
2014-Jul-29 00:33N 45°37' W 073°30'2 2.1
2014-Jul-28 23:33N 45°39' W 073°29'1010.3
2014-Jul-28 22:33N 45°47' W 073°21'1010.4
2014-Jul-28 21:33N 45°56' W 073°13'1510.8
2014-Jul-28 20:10N 46°07' W 072°58'711.9
2014-Jul-28 19:33N 46°12' W 072°51'1312.6
2014-Jul-28 18:33N 46°18' W 072°35'1111.5
2014-Jul-28 17:33N 46°25' W 072°22'1211.6
2014-Jul-28 16:33N 46°33' W 072°09'12 0.4
2014-Jul-27 13:25N 46°39' W 071°54'1112.4
2014-Jul-27 12:33N 46°34' W 072°07'1413.9
2014-Jul-27 11:34N 46°25' W 072°23'1413.6
2014-Jul-27 10:33N 46°16' W 072°38'2813.3
2014-Jul-27 08:28N 46°00' W 073°11'1213.0
2014-Jul-27 07:33N 45°50' W 073°18'1413.9
2014-Jul-27 06:33N 45°38' W 073°29'8 8.5
2014-Jul-27 05:33N 45°30' W 073°31'2 1.7
2014-Jul-27 04:33N 45°28' W 073°30'4 4.5
2014-Jul-27 03:33N 45°24' W 073°34'3 3.5
2014-Jul-27 02:33N 45°24' W 073°39'1010.2
2014-Jul-27 01:33N 45°21' W 073°52'3 3.4
2014-Jul-27 00:33N 45°18' W 073°56'3 2.4
2014-Jul-26 23:24N 45°16' W 073°57'8 9.8
2014-Jul-26 22:34N 45°14' W 074°09'107 8.9
2014-Jul-26 10:32N 44°12' W 076°13'187 8.9
2014-Jul-25 13:23N 42°31' W 079°50'  
2014-Jul-21 05:10N 42°19' W 080°43'2514.4
2014-Jul-21 03:27N 42°28' W 080°12'1314.6
2014-Jul-21 02:33N 42°33' W 079°56'1514.6
2014-Jul-21 01:33N 42°41' W 079°39'  

Dump ship's entire track history